Time;durP1;ratioP1;P1;durP2;ratioP2;P2;SDS_P1;SDS_P2;PMS_P1;PMS_P2;Temp;Humidity;BMP_temperature;BMP_pressure;BME280_temperature;BME280_humidity;BME280_pressure;Samples;Min_cycle;Max_cycle;Signal;HPM_P1;HPM_P2
2024/02/13 00:01:42;;;;;;;;;;;;;;;;;;6336549;28;20103;-78
2024/02/13 00:04:42;;;;;;;;;;;;;;;;;;6320703;28;20364;-78
2024/02/13 00:07:42;;;;;;;;;;;;;;;;;;6300917;28;19908;-78
2024/02/13 00:10:43;;;;;;;;;;;;;;;;;;6302007;28;19915;-78
2024/02/13 00:13:45;;;;;;;;;;;;;;;;;;6334191;28;19920;-78
2024/02/13 00:16:46;;;;;;;;;;;;;;;;;;6335003;28;19915;-78
2024/02/13 00:19:46;;;;;;;;;;;;;;;;;;6310160;28;20353;-78
2024/02/13 00:22:46;;;;;;;;;;;;;;;;;;6317596;28;19915;-78
2024/02/13 00:25:46;;;;;;;;;;;;;;;;;;6322284;28;19911;-78
2024/02/13 00:28:47;;;;;;;;;;;;;;;;;;6324714;28;19911;-78
2024/02/13 00:31:47;;;;;;;;;;;;;;;;;;6305544;28;19908;-78
2024/02/13 00:34:47;;;;;;;;;;;;;;;;;;6310885;28;19908;-78
2024/02/13 00:37:47;;;;;;;;;;;;;;;;;;6314339;28;19927;-78
2024/02/13 00:40:47;;;;;;;;;;;;;;;;;;6326429;28;19904;-78
2024/02/13 00:43:49;;;;;;;;;;;;;;;;;;6324162;28;19908;-78
2024/02/13 00:46:52;;;;;;;;;;;;;;;;;;6326604;28;20057;-78
2024/02/13 00:49:52;;;;;;;;;;;;;;;;;;6312512;28;19920;-78
2024/02/13 00:52:53;;;;;;;;;;;;;;;;;;6348741;28;20272;-78
2024/02/13 00:55:53;;;;;;;;;;;;;;;;;;6343042;28;19909;-78
2024/02/13 00:58:53;;;;;;;;;;;;;;;;;;6305397;28;20011;-78
2024/02/13 01:01:54;;;;;;;;;;;;;;;;;;6318217;28;20042;-78
2024/02/13 01:04:54;;;;;;;;;;;;;;;;;;6321844;28;19998;-78
2024/02/13 01:07:54;;;;;;;;;;;;;;;;;;6313356;28;19987;-78
2024/02/13 01:10:54;;;;;;;;;;;;;;;;;;6301128;28;19908;-78
2024/02/13 01:13:55;;;;;;;;;;;;;;;;;;6307094;28;19938;-78
2024/02/13 01:16:55;;;;;;;;;;;;;;;;;;6300817;28;20413;-78
2024/02/13 01:19:57;;;;;;;;;;;;;;;;;;6300439;28;19923;-78
2024/02/13 01:22:57;;;;;;;;;;;;;;;;;;6309019;28;19915;-78
2024/02/13 01:25:59;;;;;;;;;;;;;;;;;;6326180;28;19908;-78
2024/02/13 01:28:59;;;;;;;;;;;;;;;;;;6324273;28;19908;-78
2024/02/13 01:31:59;;;;;;;;;;;;;;;;;;6318813;28;19930;-78
2024/02/13 01:34:59;;;;;;;;;;;;;;;;;;6317838;28;20288;-78
2024/02/13 01:37:59;;;;;;;;;;;;;;;;;;6299426;28;19938;-78
2024/02/13 01:41:00;;;;;;;;;;;;;;;;;;6303085;28;20080;-78
2024/02/13 01:44:03;;;;;;;;;;;;;;;;;;6323220;28;19918;-78
2024/02/13 01:47:04;;;;;;;;;;;;;;;;;;6310147;28;19915;-78
2024/02/13 01:50:07;;;;;;;;;;;;;;;;;;6324283;28;19904;-78
2024/02/13 01:53:07;;;;;;;;;;;;;;;;;;6325302;28;19904;-78
2024/02/13 01:56:07;;;;;;;;;;;;;;;;;;6323921;28;19998;-78
2024/02/13 01:59:08;;;;;;;;;;;;;;;;;;6313968;28;19912;-78
2024/02/13 02:02:11;;;;;;;;;;;;;;;;;;6302166;28;19962;-78
2024/02/13 02:05:13;;;;;;;;;;;;;;;;;;6317093;28;19992;-78
2024/02/13 02:08:14;;;;;;;;;;;;;;;;;;6324675;28;19905;-78
2024/02/13 02:11:14;;;;;;;;;;;;;;;;;;6324957;28;19910;-78
2024/02/13 02:14:14;;;;;;;;;;;;;;;;;;6319438;28;19916;-78
2024/02/13 02:17:14;;;;;;;;;;;;;;;;;;6307666;28;19911;-78
2024/02/13 02:20:14;;;;;;;;;;;;;;;;;;6314487;28;19916;-78
2024/02/13 02:23:14;;;;;;;;;;;;;;;;;;6317543;28;20349;-77
2024/02/13 02:26:15;;;;;;;;;;;;;;;;;;6324289;28;20282;-78
2024/02/13 02:29:15;;;;;;;;;;;;;;;;;;6317381;28;19907;-78
2024/02/13 02:32:15;;;;;;;;;;;;;;;;;;6313752;28;19961;-78
2024/02/13 02:35:18;;;;;;;;;;;;;;;;;;6298234;28;19909;-78
2024/02/13 02:38:18;;;;;;;;;;;;;;;;;;6299809;28;19923;-78
2024/02/13 02:41:20;;;;;;;;;;;;;;;;;;6308855;28;19908;-77
2024/02/13 02:44:20;;;;;;;;;;;;;;;;;;6296683;28;19939;-78
2024/02/13 02:47:20;;;;;;;;;;;;;;;;;;6307110;28;19947;-78
2024/02/13 02:50:22;;;;;;;;;;;;;;;;;;6302013;28;20002;-78
2024/02/13 02:53:23;;;;;;;;;;;;;;;;;;6348862;28;20287;-77
2024/02/13 02:56:23;;;;;;;;;;;;;;;;;;6320728;28;20296;-78
2024/02/13 02:59:23;;;;;;;;;;;;;;;;;;6304385;28;20016;-78
2024/02/13 03:02:24;;;;;;;;;;;;;;;;;;6304380;28;20042;-77
2024/02/13 03:05:25;;;;;;;;;;;;;;;;;;6322657;28;19915;-77
2024/02/13 03:08:26;;;;;;;;;;;;;;;;;;6323372;28;20405;-77
2024/02/13 03:11:26;;;;;;;;;;;;;;;;;;6320027;28;19908;-77
2024/02/13 03:14:26;;;;;;;;;;;;;;;;;;6317872;28;19916;-77
2024/02/13 03:17:27;;;;;;;;;;;;;;;;;;6303320;28;19916;-78
2024/02/13 03:20:27;;;;;;;;;;;;;;;;;;6309309;28;19931;-78
2024/02/13 03:23:27;;;;;;;;;;;;;;;;;;6318155;28;19915;-78
2024/02/13 03:26:27;;;;;;;;;;;;;;;;;;6323614;28;19911;-78
2024/02/13 03:29:27;;;;;;;;;;;;;;;;;;6307760;28;19926;-78
2024/02/13 03:32:27;;;;;;;;;;;;;;;;;;6322338;28;20003;-77
2024/02/13 03:35:30;;;;;;;;;;;;;;;;;;6310963;28;19914;-77
2024/02/13 03:38:30;;;;;;;;;;;;;;;;;;6297607;28;20019;-77
2024/02/13 03:41:31;;;;;;;;;;;;;;;;;;6298170;28;19909;-77
2024/02/13 03:44:31;;;;;;;;;;;;;;;;;;6310907;28;19911;-77
2024/02/13 03:47:33;;;;;;;;;;;;;;;;;;6313795;28;20360;-76
2024/02/13 03:50:33;;;;;;;;;;;;;;;;;;6326065;28;20001;-76
2024/02/13 03:53:35;;;;;;;;;;;;;;;;;;6317046;28;19927;-76
2024/02/13 03:56:37;;;;;;;;;;;;;;;;;;6309196;28;19912;-76
2024/02/13 03:59:37;;;;;;;;;;;;;;;;;;6307708;28;19999;-76
2024/02/13 04:02:38;;;;;;;;;;;;;;;;;;6322018;28;19949;-77
2024/02/13 04:05:39;;;;;;;;;;;;;;;;;;6319481;28;19991;-76
2024/02/13 04:08:39;;;;;;;;;;;;;;;;;;6320341;28;19907;-76
2024/02/13 04:11:39;;;;;;;;;;;;;;;;;;6320958;28;19938;-76
2024/02/13 04:14:39;;;;;;;;;;;;;;;;;;6316840;28;19923;-77
2024/02/13 04:17:39;;;;;;;;;;;;;;;;;;6322575;28;19904;-77
2024/02/13 04:20:39;;;;;;;;;;;;;;;;;;6302099;28;19908;-76
2024/02/13 04:23:40;;;;;;;;;;;;;;;;;;6321930;28;19908;-76
2024/02/13 04:26:40;;;;;;;;;;;;;;;;;;6319321;28;19911;-77
2024/02/13 04:29:40;;;;;;;;;;;;;;;;;;6319215;28;19910;-76
2024/02/13 04:32:40;;;;;;;;;;;;;;;;;;6309242;28;19920;-76
2024/02/13 04:35:40;;;;;;;;;;;;;;;;;;6315019;28;19915;-76
2024/02/13 04:38:40;;;;;;;;;;;;;;;;;;6312229;28;20368;-77
2024/02/13 04:41:42;;;;;;;;;;;;;;;;;;6321993;28;19987;-76
2024/02/13 04:44:43;;;;;;;;;;;;;;;;;;6317588;28;19954;-77
2024/02/13 04:47:46;;;;;;;;;;;;;;;;;;6321622;28;19912;-77
2024/02/13 04:50:46;;;;;;;;;;;;;;;;;;6300415;28;20365;-77
2024/02/13 04:53:47;;;;;;;;;;;;;;;;;;6314042;28;19908;-77
2024/02/13 04:56:47;;;;;;;;;;;;;;;;;;6320922;28;19953;-77
2024/02/13 04:59:50;;;;;;;;;;;;;;;;;;6317165;28;20379;-77
2024/02/13 05:03:01;;;;;;;;;;;;;;;;;;6322179;28;19919;-77
2024/02/13 05:09:20;;;;;;;;;;;;;;;;;;6318375;28;20390;-77
2024/02/13 05:12:21;;;;;;;;;;;;;;;;;;6305168;28;19927;-77
2024/02/13 05:15:21;;;;;;;;;;;;;;;;;;6343432;28;19916;-77
2024/02/13 05:18:21;;;;;;;;;;;;;;;;;;6325263;28;19922;-77
2024/02/13 05:21:21;;;;;;;;;;;;;;;;;;6325406;28;19904;-77
2024/02/13 05:24:21;;;;;;;;;;;;;;;;;;6325772;28;19904;-77
2024/02/13 05:27:21;;;;;;;;;;;;;;;;;;6322042;28;20077;-77
2024/02/13 05:30:22;;;;;;;;;;;;;;;;;;6303473;28;19914;-77
2024/02/13 05:33:22;;;;;;;;;;;;;;;;;;6322978;28;19934;-77
2024/02/13 05:36:22;;;;;;;;;;;;;;;;;;6323650;28;19904;-77
2024/02/13 05:39:22;;;;;;;;;;;;;;;;;;6325625;28;19916;-77
2024/02/13 05:42:23;;;;;;;;;;;;;;;;;;6325529;28;19908;-77
2024/02/13 05:45:23;;;;;;;;;;;;;;;;;;6322917;28;19904;-78
2024/02/13 05:48:24;;;;;;;;;;;;;;;;;;6311740;28;19970;-78
2024/02/13 05:51:25;;;;;;;;;;;;;;;;;;6322707;28;19908;-78
2024/02/13 05:54:26;;;;;;;;;;;;;;;;;;6325139;28;19904;-78
2024/02/13 05:57:26;;;;;;;;;;;;;;;;;;6324762;28;20279;-78
2024/02/13 06:00:27;;;;;;;;;;;;;;;;;;6304271;28;19912;-78
2024/02/13 06:03:27;;;;;;;;;;;;;;;;;;6300149;28;19916;-78
2024/02/13 06:06:27;;;;;;;;;;;;;;;;;;6324764;28;19952;-78
2024/02/13 06:09:27;;;;;;;;;;;;;;;;;;6324365;28;19940;-79
2024/02/13 06:12:29;;;;;;;;;;;;;;;;;;6324120;28;20003;-78
2024/02/13 06:15:29;;;;;;;;;;;;;;;;;;6323307;28;19999;-78
2024/02/13 06:18:30;;;;;;;;;;;;;;;;;;6313790;28;19922;-78
2024/02/13 06:21:30;;;;;;;;;;;;;;;;;;6309181;28;19934;-78
2024/02/13 06:24:31;;;;;;;;;;;;;;;;;;6309925;28;20372;-78
2024/02/13 06:27:31;;;;;;;;;;;;;;;;;;6309776;28;20303;-78
2024/02/13 06:30:32;;;;;;;;;;;;;;;;;;6298065;28;20348;-78
2024/02/13 06:33:33;;;;;;;;;;;;;;;;;;6314975;28;19908;-78
2024/02/13 06:36:33;;;;;;;;;;;;;;;;;;6300880;28;19912;-79
2024/02/13 06:39:33;;;;;;;;;;;;;;;;;;6298897;28;20015;-78
2024/02/13 06:42:33;;;;;;;;;;;;;;;;;;6300928;28;19908;-78
2024/02/13 06:45:34;;;;;;;;;;;;;;;;;;6320766;28;19908;-78
2024/02/13 06:48:34;;;;;;;;;;;;;;;;;;6320285;28;19962;-79
2024/02/13 06:51:35;;;;;;;;;;;;;;;;;;6304113;28;20956;-78
2024/02/13 06:54:35;;;;;;;;;;;;;;;;;;6310350;28;19908;-78
2024/02/13 06:57:35;;;;;;;;;;;;;;;;;;6323041;28;19961;-78
2024/02/13 07:00:35;;;;;;;;;;;;;;;;;;6322594;28;19954;-78
2024/02/13 07:03:36;;;;;;;;;;;;;;;;;;6307601;28;20035;-79
2024/02/13 07:06:36;;;;;;;;;;;;;;;;;;6323317;28;19912;-78
2024/02/13 07:09:36;;;;;;;;;;;;;;;;;;6323491;28;19915;-78
2024/02/13 07:12:36;;;;;;;;;;;;;;;;;;6316405;28;19925;-79
2024/02/13 07:15:37;;;;;;;;;;;;;;;;;;6313249;28;19919;-79
2024/02/13 07:18:39;;;;;;;;;;;;;;;;;;6320208;28;19924;-78
2024/02/13 07:21:39;;;;;;;;;;;;;;;;;;6309189;28;19917;-78
2024/02/13 07:24:39;;;;;;;;;;;;;;;;;;6320371;28;20318;-78
2024/02/13 07:27:39;;;;;;;;;;;;;;;;;;6307682;28;19908;-78
2024/02/13 07:30:40;;;;;;;;;;;;;;;;;;6302968;28;20287;-78
2024/02/13 07:33:41;;;;;;;;;;;;;;;;;;6319210;28;19916;-79
2024/02/13 07:36:41;;;;;;;;;;;;;;;;;;6319047;28;19912;-78
2024/02/13 07:39:42;;;;;;;;;;;;;;;;;;6298423;28;19920;-77
2024/02/13 07:42:42;;;;;;;;;;;;;;;;;;6296376;28;20281;-76
2024/02/13 07:45:43;;;;;;;;;;;;;;;;;;6308832;28;20253;-77
2024/02/13 07:48:43;;;;;;;;;;;;;;;;;;6320270;28;20292;-77
2024/02/13 07:51:44;;;;;;;;;;;;;;;;;;6313493;28;19912;-77
2024/02/13 07:54:44;;;;;;;;;;;;;;;;;;6321017;28;19911;-77
2024/02/13 07:57:44;;;;;;;;;;;;;;;;;;6312061;28;20337;-78
2024/02/13 08:00:44;;;;;;;;;;;;;;;;;;6317733;28;19912;-77
2024/02/13 08:03:45;;;;;;;;;;;;;;;;;;6301850;28;19965;-77
2024/02/13 08:06:45;;;;;;;;;;;;;;;;;;6322693;28;19904;-77
2024/02/13 08:09:45;;;;;;;;;;;;;;;;;;6307934;28;19908;-77
2024/02/13 08:12:45;;;;;;;;;;;;;;;;;;6318971;28;19920;-77
2024/02/13 08:15:48;;;;;;;;;;;;;;;;;;6326278;28;19903;-77
2024/02/13 08:18:51;;;;;;;;;;;;;;;;;;6313934;28;19938;-77
2024/02/13 08:21:51;;;;;;;;;;;;;;;;;;6322445;28;19939;-77
2024/02/13 08:24:52;;;;;;;;;;;;;;;;;;6321932;28;19993;-77
2024/02/13 08:27:52;;;;;;;;;;;;;;;;;;6307372;28;19965;-77
2024/02/13 08:30:53;;;;;;;;;;;;;;;;;;6296148;28;19991;-78
2024/02/13 08:33:53;;;;;;;;;;;;;;;;;;6320014;28;19999;-78
2024/02/13 08:36:55;;;;;;;;;;;;;;;;;;6308613;28;19909;-78
2024/02/13 08:39:57;;;;;;;;;;;;;;;;;;6307208;28;19916;-78
2024/02/13 08:42:57;;;;;;;;;;;;;;;;;;6316822;28;19911;-77
2024/02/13 08:45:58;;;;;;;;;;;;;;;;;;6317519;28;19916;-78
2024/02/13 08:49:00;;;;;;;;;;;;;;;;;;6306072;28;19908;-78
2024/02/13 08:52:00;;;;;;;;;;;;;;;;;;6298633;28;19916;-78
2024/02/13 08:55:00;;;;;;;;;;;;;;;;;;6316976;28;19916;-78
2024/02/13 08:58:01;;;;;;;;;;;;;;;;;;6308365;28;19916;-78
2024/02/13 09:01:01;;;;;;;;;;;;;;;;;;6320125;28;19912;-78
2024/02/13 09:04:01;;;;;;;;;;;;;;;;;;6322806;28;19911;-78
2024/02/13 09:07:01;;;;;;;;;;;;;;;;;;6323215;28;20372;-78
2024/02/13 09:10:01;;;;;;;;;;;;;;;;;;6310045;28;19923;-78
2024/02/13 09:13:01;;;;;;;;;;;;;;;;;;5955529;28;10000140;-78
2024/02/13 09:16:02;;;;;;;;;;;;;;;;;;6315008;28;19931;-78
2024/02/13 09:19:03;;;;;;;;;;;;;;;;;;6325593;28;20352;-77
2024/02/13 09:22:03;;;;;;;;;;;;;;;;;;6308455;28;20299;-78
2024/02/13 09:25:03;;;;;;;;;;;;;;;;;;6313331;28;19912;-78
2024/02/13 09:28:03;;;;;;;;;;;;;;;;;;6308848;28;20291;-78
2024/02/13 09:31:03;;;;;;;;;;;;;;;;;;6310276;28;19930;-78
2024/02/13 09:34:06;;;;;;;;;;;;;;;;;;6314633;28;20217;-78
2024/02/13 09:37:09;;;;;;;;;;;;;;;;;;6307043;28;19912;-78
2024/02/13 09:40:13;;;;;;;;;;;;;;;;;;6314334;28;19958;-78
2024/02/13 09:43:13;;;;;;;;;;;;;;;;;;6314897;28;20367;-79
2024/02/13 09:46:13;;;;;;;;;;;;;;;;;;6317248;28;19916;-78
2024/02/13 09:49:13;;;;;;;;;;;;;;;;;;6315250;28;19908;-78
2024/02/13 09:52:13;;;;;;;;;;;;;;;;;;6316587;28;19912;-78
2024/02/13 09:55:14;;;;;;;;;;;;;;;;;;6325450;28;19907;-78
2024/02/13 09:58:14;;;;;;;;;;;;;;;;;;6322998;28;19926;-78
2024/02/13 10:01:14;;;;;;;;;;;;;;;;;;6307144;28;19912;-78
2024/02/13 10:04:14;;;;;;;;;;;;;;;;;;6309945;28;19911;-78
2024/02/13 10:07:14;;;;;;;;;;;;;;;;;;6313981;28;19916;-78
2024/02/13 10:10:14;;;;;;;;;;;;;;;;;;6314566;28;19908;-77
2024/02/13 10:13:14;;;;;;;;;;;;;;;;;;6325927;28;19923;-77
2024/02/13 10:16:16;;;;;;;;;;;;;;;;;;6311764;28;19915;-77
2024/02/13 10:19:16;;;;;;;;;;;;;;;;;;6309140;28;19954;-78
2024/02/13 10:22:18;;;;;;;;;;;;;;;;;;6301010;28;19904;-78
2024/02/13 10:25:21;;;;;;;;;;;;;;;;;;6324616;28;20003;-78
2024/02/13 10:28:24;;;;;;;;;;;;;;;;;;6316648;28;19916;-78
2024/02/13 10:31:25;;;;;;;;;;;;;;;;;;6310163;28;19908;-78
2024/02/13 10:34:26;;;;;;;;;;;;;;;;;;6310033;28;19912;-78
2024/02/13 10:37:26;;;;;;;;;;;;;;;;;;6312609;28;19950;-78
2024/02/13 10:40:26;;;;;;;;;;;;;;;;;;6324013;28;19919;-78
2024/02/13 10:43:27;;;;;;;;;;;;;;;;;;6322919;28;19910;-78
2024/02/13 10:46:28;;;;;;;;;;;;;;;;;;6318264;28;19980;-78
2024/02/13 10:49:29;;;;;;;;;;;;;;;;;;6309528;28;19915;-77
2024/02/13 10:52:29;;;;;;;;;;;;;;;;;;6316235;28;19908;-78
2024/02/13 10:55:30;;;;;;;;;;;;;;;;;;6314844;28;19970;-77
2024/02/13 10:58:30;;;;;;;;;;;;;;;;;;6307944;28;20015;-77
2024/02/13 11:01:31;;;;;;;;;;;;;;;;;;6319330;28;19912;-78
2024/02/13 11:04:31;;;;;;;;;;;;;;;;;;6316222;28;19995;-78
2024/02/13 11:07:31;;;;;;;;;;;;;;;;;;6308934;28;20324;-78
2024/02/13 11:10:34;;;;;;;;;;;;;;;;;;6311790;28;20003;-78
2024/02/13 11:13:35;;;;;;;;;;;;;;;;;;6329030;28;19920;-78
2024/02/13 11:16:35;;;;;;;;;;;;;;;;;;6313841;28;19919;-77
2024/02/13 11:19:35;;;;;;;;;;;;;;;;;;6312114;28;19912;-78
2024/02/13 11:22:37;;;;;;;;;;;;;;;;;;6297914;28;19908;-78
2024/02/13 11:25:40;;;;;;;;;;;;;;;;;;6320605;28;19908;-80
2024/02/13 11:28:41;;;;;;;;;;;;;;;;;;6321455;28;19904;-76
2024/02/13 11:31:42;;;;;;;;;;;;;;;;;;6314550;28;19912;-76
2024/02/13 11:34:42;;;;;;;;;;;;;;;;;;6302340;28;19948;-76
2024/02/13 11:37:43;;;;;;;;;;;;;;;;;;6317939;28;19912;-76
2024/02/13 11:40:45;;;;;;;;;;;;;;;;;;6322738;28;19927;-77
2024/02/13 11:43:45;;;;;;;;;;;;;;;;;;6318880;28;19904;-76
2024/02/13 11:46:45;;;;;;;;;;;;;;;;;;6303295;28;19908;-76
2024/02/13 11:49:45;;;;;;;;;;;;;;;;;;6297299;28;19904;-76
2024/02/13 11:52:45;;;;;;;;;;;;;;;;;;6313967;28;19961;-76
2024/02/13 11:55:46;;;;;;;;;;;;;;;;;;6313638;28;19961;-76
2024/02/13 11:58:46;;;;;;;;;;;;;;;;;;6317254;28;20284;-76
2024/02/13 12:01:48;;;;;;;;;;;;;;;;;;6314147;28;20277;-75
2024/02/13 12:04:48;;;;;;;;;;;;;;;;;;6322411;28;20000;-76
2024/02/13 12:07:49;;;;;;;;;;;;;;;;;;6322799;28;20348;-76
2024/02/13 12:10:49;;;;;;;;;;;;;;;;;;6322407;28;19908;-81
2024/02/13 12:13:50;;;;;;;;;;;;;;;;;;6320076;28;19931;-78
2024/02/13 12:16:50;;;;;;;;;;;;;;;;;;6315463;28;19908;-78
2024/02/13 12:19:52;;;;;;;;;;;;;;;;;;6305512;28;19919;-78
2024/02/13 12:22:52;;;;;;;;;;;;;;;;;;6324428;28;19911;-80
2024/02/13 12:25:53;;;;;;;;;;;;;;;;;;6326871;28;19908;-80
2024/02/13 12:28:53;;;;;;;;;;;;;;;;;;6323732;28;20396;-79
2024/02/13 12:31:54;;;;;;;;;;;;;;;;;;6327267;28;19919;-80
2024/02/13 12:34:58;;;;;;;;;;;;;;;;;;6324316;28;19908;-82
2024/02/13 12:37:58;;;;;;;;;;;;;;;;;;6311392;28;19908;-81
2024/02/13 12:40:58;;;;;;;;;;;;;;;;;;6302379;28;19912;-82
2024/02/13 12:44:00;;;;;;;;;;;;;;;;;;6300387;28;20360;-82
2024/02/13 12:47:00;;;;;;;;;;;;;;;;;;6306112;28;19914;-82
2024/02/13 12:50:01;;;;;;;;;;;;;;;;;;6317100;28;19908;-82
2024/02/13 12:53:01;;;;;;;;;;;;;;;;;;6326262;28;19957;-82
2024/02/13 12:56:02;;;;;;;;;;;;;;;;;;6327039;28;19958;-82
2024/02/13 12:59:03;;;;;;;;;;;;;;;;;;6324729;28;19920;-82
2024/02/13 13:02:03;;;;;;;;;;;;;;;;;;6326639;28;19915;-82
2024/02/13 13:05:06;;;;;;;;;;;;;;;;;;6325956;28;20368;-82
2024/02/13 13:08:06;;;;;;;;;;;;;;;;;;6318946;28;19954;-82
2024/02/13 13:11:06;;;;;;;;;;;;;;;;;;6318837;28;19908;-82
2024/02/13 13:14:07;;;;;;;;;;;;;;;;;;6339426;28;19916;-79
2024/02/13 13:17:07;;;;;;;;;;;;;;;;;;6346877;28;19908;-81
2024/02/13 13:20:13;;;;;;;;;;;;;;;;;;6309563;28;20293;-79
2024/02/13 13:23:16;;;;;;;;;;;;;;;;;;6303957;28;19905;-79
2024/02/13 13:26:16;;;;;;;;;;;;;;;;;;6315728;28;19991;-78
2024/02/13 13:29:16;;;;;;;;;;;;;;;;;;6323097;28;19904;-79
2024/02/13 13:32:18;;;;;;;;;;;;;;;;;;6325872;28;19957;-78
2024/02/13 13:35:21;;;;;;;;;;;;;;;;;;6313889;28;19908;-79
2024/02/13 13:38:21;;;;;;;;;;;;;;;;;;6313831;28;19916;-79
2024/02/13 13:41:21;;;;;;;;;;;;;;;;;;6325198;28;20257;-79
2024/02/13 13:44:22;;;;;;;;;;;;;;;;;;6323840;28;20307;-78
2024/02/13 13:47:22;;;;;;;;;;;;;;;;;;6325372;28;19908;-79
2024/02/13 13:50:24;;;;;;;;;;;;;;;;;;6324987;28;19908;-79
2024/02/13 13:53:24;;;;;;;;;;;;;;;;;;6325660;28;19904;-79
2024/02/13 13:56:25;;;;;;;;;;;;;;;;;;6311226;28;19965;-79
2024/02/13 13:59:25;;;;;;;;;;;;;;;;;;6312770;28;20353;-79
2024/02/13 14:02:25;;;;;;;;;;;;;;;;;;6300047;28;19913;-79
2024/02/13 14:05:25;;;;;;;;;;;;;;;;;;6298265;28;20356;-79
2024/02/13 14:08:25;;;;;;;;;;;;;;;;;;6301905;28;20387;-79
2024/02/13 14:11:26;;;;;;;;;;;;;;;;;;6311354;28;19916;-79
2024/02/13 14:14:26;;;;;;;;;;;;;;;;;;6342009;28;19915;-79
2024/02/13 14:17:26;;;;;;;;;;;;;;;;;;6329285;28;19904;-79
2024/02/13 14:20:26;;;;;;;;;;;;;;;;;;6318257;28;19920;-79
2024/02/13 14:23:29;;;;;;;;;;;;;;;;;;6321512;28;20345;-79
2024/02/13 14:26:34;;;;;;;;;;;;;;;;;;6321045;28;19908;-79
2024/02/13 14:29:34;;;;;;;;;;;;;;;;;;6312647;28;19904;-79
2024/02/13 14:32:34;;;;;;;;;;;;;;;;;;6307500;28;19909;-79
2024/02/13 14:35:34;;;;;;;;;;;;;;;;;;6320021;28;20345;-79
2024/02/13 14:38:35;;;;;;;;;;;;;;;;;;6319113;28;19974;-79
2024/02/13 14:41:36;;;;;;;;;;;;;;;;;;6317836;28;20003;-79
2024/02/13 14:44:36;;;;;;;;;;;;;;;;;;6321873;28;20279;-79
2024/02/13 14:47:39;;;;;;;;;;;;;;;;;;6322822;28;19908;-78
2024/02/13 14:50:39;;;;;;;;;;;;;;;;;;6322665;28;19922;-79
2024/02/13 14:53:40;;;;;;;;;;;;;;;;;;6324196;28;19951;-79
2024/02/13 14:56:41;;;;;;;;;;;;;;;;;;6321562;28;19915;-79
2024/02/13 14:59:41;;;;;;;;;;;;;;;;;;6310032;28;19919;-78
2024/02/13 15:02:41;;;;;;;;;;;;;;;;;;6323827;28;19908;-79
2024/02/13 15:05:42;;;;;;;;;;;;;;;;;;6323094;28;19912;-79
2024/02/13 15:08:42;;;;;;;;;;;;;;;;;;6310853;28;19912;-79
2024/02/13 15:11:42;;;;;;;;;;;;;;;;;;6319759;28;19911;-78
2024/02/13 15:14:42;;;;;;;;;;;;;;;;;;6341276;28;19916;-79
2024/02/13 15:17:42;;;;;;;;;;;;;;;;;;6339532;28;20319;-78
2024/02/13 15:20:43;;;;;;;;;;;;;;;;;;6300319;28;20367;-78
2024/02/13 15:23:43;;;;;;;;;;;;;;;;;;6320591;28;19904;-79
2024/02/13 15:26:44;;;;;;;;;;;;;;;;;;6314740;28;19995;-79
2024/02/13 15:29:45;;;;;;;;;;;;;;;;;;6312823;28;19908;-79
2024/02/13 15:32:46;;;;;;;;;;;;;;;;;;6323217;28;19949;-79
2024/02/13 15:36:01;;;;;;;;;;;;;;;;;;6317477;28;19954;-79
2024/02/13 15:48:51;;;;;;;;;;;;;;;;;;6299258;28;19916;-79
2024/02/13 15:51:54;;;;;;;;;;;;;;;;;;6307138;28;19905;-80
2024/02/13 15:54:55;;;;;;;;;;;;;;;;;;6297754;28;19928;-80
2024/02/13 15:57:55;;;;;;;;;;;;;;;;;;6305163;28;19915;-81
2024/02/13 16:00:56;;;;;;;;;;;;;;;;;;6300303;28;20365;-82
2024/02/13 16:03:57;;;;;;;;;;;;;;;;;;6305012;28;19911;-81
2024/02/13 16:06:57;;;;;;;;;;;;;;;;;;6309256;28;19930;-81
2024/02/13 16:09:58;;;;;;;;;;;;;;;;;;6308681;28;19940;-81
2024/02/13 16:13:02;;;;;;;;;;;;;;;;;;6327044;28;19966;-81
2024/02/13 16:16:02;;;;;;;;;;;;;;;;;;6307712;28;20410;-81
2024/02/13 16:19:04;;;;;;;;;;;;;;;;;;6308239;28;19972;-81
2024/02/13 16:22:04;;;;;;;;;;;;;;;;;;6317826;28;19961;-80
2024/02/13 16:25:05;;;;;;;;;;;;;;;;;;6315377;28;19911;-81
2024/02/13 16:28:06;;;;;;;;;;;;;;;;;;6302602;28;20331;-81
2024/02/13 16:31:09;;;;;;;;;;;;;;;;;;6306447;28;19954;-80
2024/02/13 16:34:10;;;;;;;;;;;;;;;;;;6306803;28;19916;-80
2024/02/13 16:37:11;;;;;;;;;;;;;;;;;;6323464;28;19915;-80
2024/02/13 16:40:13;;;;;;;;;;;;;;;;;;6320651;28;19911;-81
2024/02/13 16:43:13;;;;;;;;;;;;;;;;;;6306890;28;20374;-80
2024/02/13 16:46:17;;;;;;;;;;;;;;;;;;6321267;28;19908;-85
2024/02/13 16:49:17;;;;;;;;;;;;;;;;;;6302259;28;19959;-77
2024/02/13 16:52:18;;;;;;;;;;;;;;;;;;6303542;28;19988;-77
2024/02/13 16:55:19;;;;;;;;;;;;;;;;;;6304172;28;19908;-78
2024/02/13 16:58:19;;;;;;;;;;;;;;;;;;6319947;28;19931;-77
2024/02/13 17:01:20;;;;;;;;;;;;;;;;;;6320928;28;19904;-76
2024/02/13 17:04:20;;;;;;;;;;;;;;;;;;6318187;28;19908;-76
2024/02/13 17:07:20;;;;;;;;;;;;;;;;;;6320817;28;20269;-76
2024/02/13 17:10:20;;;;;;;;;;;;;;;;;;6312769;28;20356;-76
2024/02/13 17:13:20;;;;;;;;;;;;;;;;;;6321376;28;19920;-77
2024/02/13 17:16:21;;;;;;;;;;;;;;;;;;6327946;28;19923;-78
2024/02/13 17:19:21;;;;;;;;;;;;;;;;;;6316881;28;19926;-78
2024/02/13 17:22:22;;;;;;;;;;;;;;;;;;6322308;28;20304;-78
2024/02/13 17:25:22;;;;;;;;;;;;;;;;;;6319596;28;19958;-79
2024/02/13 17:28:22;;;;;;;;;;;;;;;;;;6323231;28;19912;-78
2024/02/13 17:31:23;;;;;;;;;;;;;;;;;;6303213;28;19976;-78
2024/02/13 17:34:24;;;;;;;;;;;;;;;;;;6310654;28;19915;-77
2024/02/13 17:37:24;;;;;;;;;;;;;;;;;;6317594;28;20383;-78
2024/02/13 17:40:24;;;;;;;;;;;;;;;;;;6317699;28;19922;-78
2024/02/13 17:43:27;;;;;;;;;;;;;;;;;;6309520;28;19916;-80
2024/02/13 17:46:27;;;;;;;;;;;;;;;;;;6299613;28;19904;-79
2024/02/13 17:49:27;;;;;;;;;;;;;;;;;;6299464;28;19904;-79
2024/02/13 17:52:27;;;;;;;;;;;;;;;;;;6308492;28;19912;-80
2024/02/13 17:55:27;;;;;;;;;;;;;;;;;;6325090;28;19904;-80
2024/02/13 17:58:27;;;;;;;;;;;;;;;;;;6322992;28;19920;-79
2024/02/13 18:01:27;;;;;;;;;;;;;;;;;;6307982;28;19909;-78
2024/02/13 18:04:28;;;;;;;;;;;;;;;;;;6315462;28;19912;-77
2024/02/13 18:07:28;;;;;;;;;;;;;;;;;;6311164;28;20281;-76
2024/02/13 18:10:28;;;;;;;;;;;;;;;;;;6301129;28;19908;-77
2024/02/13 18:13:29;;;;;;;;;;;;;;;;;;6315661;28;19961;-79
2024/02/13 18:16:29;;;;;;;;;;;;;;;;;;6312633;28;20049;-81
2024/02/13 18:19:29;;;;;;;;;;;;;;;;;;6303171;28;20341;-77
2024/02/13 18:22:30;;;;;;;;;;;;;;;;;;6310364;28;19908;-77
2024/02/13 18:25:30;;;;;;;;;;;;;;;;;;6321036;28;20002;-78
2024/02/13 18:28:30;;;;;;;;;;;;;;;;;;6321264;28;19908;-79
2024/02/13 18:31:30;;;;;;;;;;;;;;;;;;6317344;28;19953;-79
2024/02/13 18:34:30;;;;;;;;;;;;;;;;;;6305266;28;19907;-79
2024/02/13 18:37:30;;;;;;;;;;;;;;;;;;6308225;28;19969;-79
2024/02/13 18:40:30;;;;;;;;;;;;;;;;;;6300178;28;19946;-79
2024/02/13 18:43:31;;;;;;;;;;;;;;;;;;6295191;28;20463;-79
2024/02/13 18:46:31;;;;;;;;;;;;;;;;;;6300895;28;20360;-79
2024/02/13 18:49:31;;;;;;;;;;;;;;;;;;6315036;28;20026;-78
2024/02/13 18:52:31;;;;;;;;;;;;;;;;;;6307785;28;20337;-78
2024/02/13 18:55:32;;;;;;;;;;;;;;;;;;6305607;28;19916;-79
2024/02/13 18:58:35;;;;;;;;;;;;;;;;;;6314407;28;19924;-79
2024/02/13 19:01:36;;;;;;;;;;;;;;;;;;6300497;28;19904;-78
2024/02/13 19:04:36;;;;;;;;;;;;;;;;;;6307172;28;19912;-78
2024/02/13 19:07:36;;;;;;;;;;;;;;;;;;6296100;28;20452;-79
2024/02/13 19:10:36;;;;;;;;;;;;;;;;;;6306657;28;19908;-78
2024/02/13 19:13:36;;;;;;;;;;;;;;;;;;6301876;28;19917;-79
2024/02/13 19:16:36;;;;;;;;;;;;;;;;;;6311129;28;21226;-78
2024/02/13 19:19:36;;;;;;;;;;;;;;;;;;6300872;28;19989;-79
2024/02/13 19:22:37;;;;;;;;;;;;;;;;;;6318977;28;19912;-78
2024/02/13 19:25:37;;;;;;;;;;;;;;;;;;6309488;28;19931;-78
2024/02/13 19:28:38;;;;;;;;;;;;;;;;;;6302316;28;20307;-79
2024/02/13 19:31:38;;;;;;;;;;;;;;;;;;6296821;28;19908;-79
2024/02/13 19:34:38;;;;;;;;;;;;;;;;;;6306002;28;19986;-79
2024/02/13 19:37:38;;;;;;;;;;;;;;;;;;6303373;28;19912;-79
2024/02/13 19:40:39;;;;;;;;;;;;;;;;;;6301883;28;20012;-78
2024/02/13 19:43:40;;;;;;;;;;;;;;;;;;6294065;28;19916;-79
2024/02/13 19:46:40;;;;;;;;;;;;;;;;;;6313946;28;19936;-77
2024/02/13 19:49:40;;;;;;;;;;;;;;;;;;6306930;28;19991;-78
2024/02/13 19:52:40;;;;;;;;;;;;;;;;;;6310045;28;20296;-78
2024/02/13 19:55:40;;;;;;;;;;;;;;;;;;6302102;28;19915;-78
2024/02/13 19:58:42;;;;;;;;;;;;;;;;;;6297765;28;19920;-78
2024/02/13 20:01:42;;;;;;;;;;;;;;;;;;6296632;28;19916;-79
2024/02/13 20:04:42;;;;;;;;;;;;;;;;;;6301268;28;19923;-79
2024/02/13 20:07:43;;;;;;;;;;;;;;;;;;6299335;28;19919;-78
2024/02/13 20:10:43;;;;;;;;;;;;;;;;;;6301421;28;19912;-77
2024/02/13 20:13:43;;;;;;;;;;;;;;;;;;6297711;28;19920;-79
2024/02/13 20:16:44;;;;;;;;;;;;;;;;;;6302461;28;19908;-77
2024/02/13 20:19:45;;;;;;;;;;;;;;;;;;6298917;28;19924;-78
2024/02/13 20:22:45;;;;;;;;;;;;;;;;;;6302406;28;19939;-78
2024/02/13 20:25:45;;;;;;;;;;;;;;;;;;6300108;28;19998;-78
2024/02/13 20:28:45;;;;;;;;;;;;;;;;;;6295761;28;19912;-78
2024/02/13 20:31:46;;;;;;;;;;;;;;;;;;6301447;28;19912;-78
2024/02/13 20:34:46;;;;;;;;;;;;;;;;;;6299968;28;20360;-78
2024/02/13 20:37:46;;;;;;;;;;;;;;;;;;6299484;28;20014;-78
2024/02/13 20:40:46;;;;;;;;;;;;;;;;;;6318912;28;19920;-78
2024/02/13 20:43:47;;;;;;;;;;;;;;;;;;6307270;28;19911;-78
2024/02/13 20:46:48;;;;;;;;;;;;;;;;;;6301132;28;20726;-78